Thorndale, Pennsylvania
Current Conditions -  °F | °C
As of 8:55 PM on Wednesday 26 Nov 2014 (Local Time) from KMQS Reporting Station
Light Snow Light Snow  
Wind Chill: 25°   Ceiling: Unl
Heat Index: 34°   Visibility: 7mi
Dew Point: 32°   Wind: 12mph
Humidity: 93%   Direction: 340°NNW
Pressure: 29.88"   Gusts: NA
Location:  40°N, 75.75°W
Report Text: KMQS 270155Z AUTO 34010KT 7SM -SN FEW010 FEW020 01/00 A2988 RMK AO2
Loading
Personal Weather Stations






























Interactive Weather Map New forecast layout! Learn more

10-Day Weather Forecast

Advertisements
Track Severe Weather on mobile